createdAt,value
2023-05-02T00:01:11.676Z,6.60
2023-05-02T00:03:39.976Z,7.23
2023-05-02T00:06:11.481Z,6.10
2023-05-02T00:08:41.732Z,6.10
2023-05-02T00:11:14.035Z,6.17
2023-05-02T00:13:44.139Z,6.20
2023-05-02T00:16:16.967Z,5.53
2023-05-02T00:18:44.940Z,5.73
2023-05-02T00:21:13.208Z,6.10
2023-05-02T00:23:44.057Z,5.80
2023-05-02T00:26:13.913Z,6.07
2023-05-02T00:28:41.878Z,6.00
2023-05-02T00:31:16.713Z,5.63
2023-05-02T00:33:44.953Z,5.67
2023-05-02T00:36:16.547Z,6.73
2023-05-02T00:38:47.470Z,5.87
2023-05-02T00:41:18.455Z,6.20
2023-05-02T00:43:49.054Z,4.93
2023-05-02T00:46:17.817Z,5.60
2023-05-02T00:48:56.746Z,6.10
2023-05-02T00:51:29.841Z,5.40
2023-05-02T00:53:58.034Z,5.37
2023-05-02T00:56:38.776Z,5.83
2023-05-02T00:59:07.792Z,5.40
2023-05-02T01:01:41.941Z,5.27
2023-05-02T01:04:20.777Z,6.30
2023-05-02T01:06:55.265Z,5.30
2023-05-02T01:09:35.648Z,5.73
2023-05-02T01:12:08.918Z,5.30
2023-05-02T01:14:42.339Z,6.47
2023-05-02T01:17:13.526Z,6.23
2023-05-02T01:19:46.973Z,5.33
2023-05-02T01:22:15.717Z,5.90
2023-05-02T01:24:54.641Z,5.13
2023-05-02T01:27:34.280Z,6.27
2023-05-02T01:30:18.511Z,5.30
2023-05-02T01:32:49.779Z,5.50
2023-05-02T01:35:18.911Z,6.20
2023-05-02T01:37:52.266Z,5.67
2023-05-02T01:40:25.782Z,5.30
2023-05-02T01:42:54.420Z,5.73
2023-05-02T01:45:25.986Z,5.93
2023-05-02T01:47:54.646Z,6.50
2023-05-02T01:50:27.801Z,5.50
2023-05-02T01:53:14.057Z,5.37
2023-05-02T01:55:49.857Z,5.37
2023-05-02T01:58:23.136Z,6.50
2023-05-02T02:00:53.100Z,6.03
2023-05-02T02:03:23.702Z,5.90
2023-05-02T02:05:59.642Z,5.43
2023-05-02T02:08:31.153Z,5.93
2023-05-02T02:11:05.576Z,6.07
2023-05-02T02:13:52.059Z,5.40
2023-05-02T02:16:26.536Z,6.40
2023-05-02T02:18:56.582Z,5.50
2023-05-02T02:21:25.499Z,6.37
2023-05-02T02:23:55.608Z,6.80
2023-05-02T02:26:23.461Z,5.70
2023-05-02T02:28:52.263Z,6.63
2023-05-02T02:31:26.122Z,5.90
2023-05-02T02:33:54.292Z,6.30
2023-05-02T02:36:27.214Z,5.33
2023-05-02T02:39:01.318Z,5.57
2023-05-02T02:41:38.981Z,6.50
2023-05-02T02:44:13.528Z,6.33
2023-05-02T02:46:52.859Z,5.33
2023-05-02T02:49:37.372Z,6.20
2023-05-02T02:52:12.910Z,5.70
2023-05-02T02:54:46.613Z,6.23
2023-05-02T02:57:18.317Z,6.10
2023-05-02T02:59:53.441Z,6.43
2023-05-02T03:02:30.656Z,6.30
2023-05-02T03:04:59.116Z,5.97
2023-05-02T03:07:29.621Z,6.07
2023-05-02T03:10:01.706Z,5.30
2023-05-02T03:12:36.107Z,5.90
2023-05-02T03:15:17.792Z,8.10
2023-05-02T03:17:51.729Z,6.77
2023-05-02T03:20:24.900Z,6.87
2023-05-02T03:22:54.024Z,7.23
2023-05-02T03:25:22.654Z,7.07
2023-05-02T03:27:53.180Z,6.40
2023-05-02T03:30:22.745Z,6.83
2023-05-02T03:32:54.600Z,6.80
2023-05-02T03:35:32.438Z,8.37
2023-05-02T03:38:06.898Z,7.27
2023-05-02T03:40:34.924Z,8.00
2023-05-02T03:43:04.834Z,6.97
2023-05-02T03:45:32.586Z,6.90
2023-05-02T03:48:02.603Z,6.90
2023-05-02T03:50:31.081Z,7.30
2023-05-02T03:53:10.560Z,6.33
2023-05-02T03:55:41.069Z,7.27
2023-05-02T03:58:08.817Z,7.93
2023-05-02T04:00:38.629Z,7.23
2023-05-02T04:03:08.821Z,7.63
2023-05-02T04:05:37.367Z,6.87
2023-05-02T04:08:08.691Z,7.17
2023-05-02T04:10:37.190Z,6.80
2023-05-02T04:13:05.174Z,7.70
2023-05-02T04:15:33.647Z,6.90
2023-05-02T04:18:03.238Z,7.60
2023-05-02T04:20:34.276Z,6.63
2023-05-02T04:23:02.644Z,8.10
2023-05-02T04:25:31.138Z,7.67
2023-05-02T04:27:58.872Z,6.77
2023-05-02T04:30:28.622Z,7.30
2023-05-02T04:32:59.643Z,7.60
2023-05-02T04:35:27.834Z,7.40
2023-05-02T04:37:59.876Z,7.60
2023-05-02T04:40:30.594Z,8.43
2023-05-02T04:43:07.905Z,8.00
2023-05-02T04:45:37.338Z,7.10
2023-05-02T04:48:07.085Z,7.93
2023-05-02T04:50:41.615Z,7.67
2023-05-02T04:53:12.186Z,7.17
2023-05-02T04:55:43.262Z,8.17
2023-05-02T04:58:11.611Z,8.23
2023-05-02T05:00:43.163Z,8.00
2023-05-02T05:03:13.723Z,6.80
2023-05-02T05:05:47.988Z,7.87
2023-05-02T05:08:23.635Z,8.73
2023-05-02T05:10:52.775Z,7.33
2023-05-02T05:13:24.782Z,8.40
2023-05-02T05:15:56.156Z,8.67
2023-05-02T05:18:24.614Z,7.90
2023-05-02T05:20:52.459Z,8.73
2023-05-02T05:23:24.081Z,8.40
2023-05-02T05:25:53.073Z,8.90
2023-05-02T05:28:24.110Z,9.27
2023-05-02T05:30:55.422Z,8.57
2023-05-02T05:33:23.685Z,10.23
2023-05-02T05:38:42.981Z,9.83
2023-05-02T05:41:12.297Z,9.70
2023-05-02T05:43:45.828Z,9.93
2023-05-02T05:46:13.970Z,9.43
2023-05-02T05:48:43.930Z,11.03
2023-05-02T05:51:14.541Z,10.60
2023-05-02T05:53:45.302Z,10.20
2023-05-02T05:56:15.555Z,9.87
2023-05-02T05:58:44.372Z,11.43
2023-05-02T06:01:18.014Z,10.20
2023-05-02T06:03:49.856Z,10.03
2023-05-02T06:06:18.556Z,11.67
2023-05-02T06:08:48.701Z,11.00
2023-05-02T06:11:20.159Z,10.57
2023-05-02T06:14:00.978Z,11.77
2023-05-02T06:16:32.394Z,11.03
2023-05-02T06:19:03.847Z,11.00
2023-05-02T06:21:34.393Z,12.90
2023-05-02T06:24:07.641Z,12.10
2023-05-02T06:26:35.989Z,14.07
2023-05-02T06:29:04.151Z,14.13
2023-05-02T06:31:32.753Z,14.13
2023-05-02T06:34:01.498Z,14.33
2023-05-02T06:36:30.561Z,12.47
2023-05-02T06:39:22.544Z,11.80
2023-05-02T06:41:55.543Z,12.20
2023-05-02T06:44:24.047Z,15.33
2023-05-02T06:46:55.716Z,14.97
2023-05-02T06:49:25.220Z,14.27
2023-05-02T06:51:56.555Z,14.33
2023-05-02T06:54:28.812Z,15.27
2023-05-02T06:56:58.241Z,14.27
2023-05-02T06:59:29.022Z,14.70
2023-05-02T07:01:57.181Z,15.93
2023-05-02T07:04:27.398Z,17.63
2023-05-02T07:07:02.303Z,16.73
2023-05-02T07:09:32.512Z,15.53
2023-05-02T07:12:05.330Z,16.00
2023-05-02T07:14:50.938Z,18.03
2023-05-02T07:17:19.587Z,17.47
2023-05-02T07:19:49.920Z,17.97
2023-05-02T07:22:30.866Z,16.83
2023-05-02T07:24:59.764Z,18.57
2023-05-02T07:27:33.419Z,18.80
2023-05-02T07:30:04.418Z,18.53
2023-05-02T07:32:36.535Z,20.80
2023-05-02T07:35:05.292Z,19.80
2023-05-02T07:37:40.882Z,20.87
2023-05-02T07:40:13.503Z,20.50
2023-05-02T07:42:44.460Z,23.10
2023-05-02T07:45:14.497Z,21.80
2023-05-02T07:47:47.456Z,25.40
2023-05-02T07:50:26.330Z,21.10
2023-05-02T07:52:55.127Z,23.83
2023-05-02T07:55:28.822Z,21.90
2023-05-02T07:57:58.522Z,22.90
2023-05-02T08:00:27.673Z,21.23
2023-05-02T08:02:57.033Z,20.80
2023-05-02T08:05:26.693Z,21.70
2023-05-02T08:07:57.819Z,22.20
2023-05-02T08:10:28.943Z,24.10
2023-05-02T08:13:01.676Z,22.27
2023-05-02T08:15:33.462Z,21.20
2023-05-02T08:18:07.057Z,22.87
2023-05-02T08:20:42.357Z,21.83
2023-05-02T08:23:15.333Z,21.40
2023-05-02T08:25:46.189Z,22.17
2023-05-02T08:28:17.936Z,22.20
2023-05-02T08:30:46.458Z,23.43
2023-05-02T08:33:14.683Z,23.67
2023-05-02T08:35:43.294Z,21.40
2023-05-02T08:38:12.441Z,21.70
2023-05-02T08:40:46.827Z,20.40
2023-05-02T08:43:20.079Z,20.13
2023-05-02T08:45:48.624Z,21.43
2023-05-02T08:48:20.462Z,22.90
2023-05-02T08:50:49.987Z,23.80
2023-05-02T08:53:22.685Z,22.97
2023-05-02T08:55:53.856Z,23.43
2023-05-02T08:58:23.590Z,23.03
2023-05-02T09:00:54.708Z,21.00
2023-05-02T09:03:29.136Z,22.30
2023-05-02T09:06:05.598Z,22.90
2023-05-02T09:08:35.223Z,20.67
2023-05-02T09:11:03.998Z,24.20
2023-05-02T09:13:37.661Z,22.40
2023-05-02T09:16:08.855Z,20.70
2023-05-02T09:18:40.358Z,18.17
2023-05-02T09:21:13.045Z,20.07
2023-05-02T09:23:45.134Z,18.80
2023-05-02T09:26:15.433Z,18.07
2023-05-02T09:28:50.550Z,18.93
2023-05-02T09:31:43.679Z,18.00
2023-05-02T09:34:13.099Z,17.30
2023-05-02T09:36:45.523Z,18.53
2023-05-02T09:39:23.829Z,16.73
2023-05-02T09:41:54.428Z,18.10
2023-05-02T09:44:27.540Z,18.57
2023-05-02T09:46:57.714Z,17.93
2023-05-02T09:49:45.687Z,18.70
2023-05-02T09:52:15.659Z,17.47
2023-05-02T09:54:48.947Z,16.87
2023-05-02T09:57:20.586Z,14.73
2023-05-02T10:00:11.809Z,17.13
2023-05-02T10:02:51.708Z,18.50
2023-05-02T10:05:21.663Z,17.40
2023-05-02T10:07:54.269Z,16.50
2023-05-02T10:10:27.518Z,17.17
2023-05-02T10:12:55.790Z,16.47
2023-05-02T10:15:31.076Z,14.60
2023-05-02T10:18:13.790Z,14.27
2023-05-02T10:20:48.556Z,15.07
2023-05-02T10:23:31.449Z,15.47
2023-05-02T10:26:05.566Z,16.20
2023-05-02T10:28:35.218Z,16.00
2023-05-02T10:31:11.026Z,16.67
2023-05-02T10:33:40.482Z,17.00
2023-05-02T10:36:12.827Z,17.00
2023-05-02T10:38:43.591Z,14.47
2023-05-02T10:41:17.078Z,15.13
2023-05-02T10:43:49.558Z,16.67
2023-05-02T10:46:37.788Z,14.90
2023-05-02T10:49:07.356Z,14.67
2023-05-02T10:51:36.405Z,15.37
2023-05-02T10:54:23.413Z,16.50
2023-05-02T10:57:13.055Z,16.40
2023-05-02T10:59:47.906Z,18.53
2023-05-02T11:02:52.082Z,18.30
2023-05-02T11:05:20.234Z,18.90
2023-05-02T11:07:52.807Z,18.53
2023-05-02T11:10:28.636Z,18.20
2023-05-02T11:13:01.175Z,20.53
2023-05-02T11:15:58.490Z,17.03
2023-05-02T11:18:28.802Z,17.87
2023-05-02T11:21:30.788Z,19.83
2023-05-02T11:24:38.376Z,18.27
2023-05-02T11:27:47.012Z,20.27
2023-05-02T11:30:16.359Z,20.70
2023-05-02T11:33:13.596Z,20.83
2023-05-02T11:35:48.917Z,17.70
2023-05-02T11:38:20.416Z,17.67
2023-05-02T11:41:01.028Z,18.43
2023-05-02T11:43:32.839Z,19.27
2023-05-02T11:46:05.847Z,18.97
2023-05-02T11:48:35.389Z,18.00
2023-05-02T11:51:07.418Z,20.40
2023-05-02T11:53:37.244Z,19.17
2023-05-02T11:56:12.279Z,21.30
2023-05-02T11:58:40.624Z,20.20
2023-05-02T12:01:15.299Z,20.10
2023-05-02T12:03:45.855Z,21.00
2023-05-02T12:06:18.993Z,18.57
2023-05-02T12:08:50.106Z,18.77
2023-05-02T12:11:22.473Z,17.47
2023-05-02T12:13:53.302Z,18.10
2023-05-02T12:16:22.361Z,18.33
2023-05-02T12:19:01.566Z,17.63
2023-05-02T12:21:34.524Z,18.77
2023-05-02T12:24:06.264Z,19.10
2023-05-02T12:26:37.180Z,18.93
2023-05-02T12:29:10.187Z,18.80
2023-05-02T12:31:38.962Z,17.83
2023-05-02T12:34:12.995Z,16.40
2023-05-02T12:36:48.021Z,16.50
2023-05-02T12:39:18.035Z,17.37
2023-05-02T12:41:46.489Z,18.90
2023-05-02T12:44:19.203Z,17.67
2023-05-02T12:47:00.258Z,19.43
2023-05-02T12:49:31.580Z,18.43
2023-05-02T12:52:12.340Z,17.80
2023-05-02T12:54:41.150Z,16.43
2023-05-02T12:57:13.605Z,16.60
2023-05-02T12:59:43.947Z,17.57
2023-05-02T13:02:11.778Z,17.97
2023-05-02T13:04:43.323Z,15.73
2023-05-02T13:07:13.400Z,16.07
2023-05-02T13:09:44.124Z,16.17
2023-05-02T13:12:13.746Z,16.23
2023-05-02T13:14:44.830Z,15.77
2023-05-02T13:17:14.877Z,20.07
2023-05-02T13:19:53.997Z,16.37
2023-05-02T13:22:30.171Z,18.13
2023-05-02T13:25:03.137Z,16.47
2023-05-02T13:27:31.385Z,16.80
2023-05-02T13:30:04.832Z,16.13
2023-05-02T13:32:38.702Z,15.30
2023-05-02T13:35:14.207Z,14.20
2023-05-02T13:37:47.995Z,14.13
2023-05-02T13:40:17.450Z,13.13
2023-05-02T13:42:48.509Z,13.03
2023-05-02T13:45:19.445Z,12.03
2023-05-02T13:47:47.875Z,9.93
2023-05-02T13:50:21.115Z,10.03
2023-05-02T13:52:53.253Z,11.43
2023-05-02T13:55:26.425Z,10.10
2023-05-02T13:57:58.867Z,12.30
2023-05-02T14:00:29.052Z,12.90
2023-05-02T14:03:00.304Z,12.97
2023-05-02T14:05:33.088Z,13.33
2023-05-02T14:08:11.122Z,13.13
2023-05-02T14:10:42.367Z,12.47
2023-05-02T14:13:14.612Z,9.97
2023-05-02T14:15:43.250Z,10.47
2023-05-02T14:18:14.009Z,11.17
2023-05-02T14:20:42.578Z,12.30
2023-05-02T14:23:11.999Z,13.17
2023-05-02T14:25:41.632Z,11.07
2023-05-02T14:28:14.753Z,12.23
2023-05-02T14:30:43.966Z,10.03
2023-05-02T14:33:25.800Z,11.40
2023-05-02T14:35:57.269Z,10.13
2023-05-02T14:38:30.280Z,11.07
2023-05-02T14:41:00.813Z,9.67
2023-05-02T14:43:28.898Z,10.27
2023-05-02T14:45:57.814Z,9.87
2023-05-02T14:48:26.076Z,9.70
2023-05-02T14:50:59.856Z,10.20
2023-05-02T14:53:34.371Z,10.10
2023-05-02T14:56:04.354Z,10.60
2023-05-02T14:58:38.427Z,9.40
2023-05-02T15:01:16.290Z,9.37
2023-05-02T15:04:04.366Z,8.60
2023-05-02T15:06:34.470Z,8.63
2023-05-02T15:09:07.806Z,8.90
2023-05-02T15:11:41.494Z,7.80
2023-05-02T15:14:14.819Z,7.23
2023-05-02T15:16:50.322Z,8.67
2023-05-02T15:19:18.563Z,6.57
2023-05-02T15:21:46.933Z,6.33
2023-05-02T15:24:23.335Z,6.90
2023-05-02T15:26:52.031Z,5.30
2023-05-02T15:29:19.897Z,6.03
2023-05-02T15:31:48.006Z,6.10
2023-05-02T15:34:16.118Z,5.17
2023-05-02T15:36:48.803Z,5.70
2023-05-02T15:39:23.118Z,5.70
2023-05-02T15:41:52.949Z,4.50
2023-05-02T15:44:21.556Z,3.70
2023-05-02T15:46:50.001Z,4.50
2023-05-02T15:49:18.172Z,3.53
2023-05-02T15:51:48.429Z,3.60
2023-05-02T15:54:21.870Z,3.87
2023-05-02T15:56:55.629Z,3.97
2023-05-02T15:59:23.757Z,3.80
2023-05-02T16:01:59.174Z,3.63
2023-05-02T16:04:29.475Z,4.03
2023-05-02T16:06:59.386Z,3.20
2023-05-02T16:09:33.864Z,4.00
2023-05-02T16:12:03.959Z,3.37
2023-05-02T16:14:35.246Z,1.83
2023-05-02T16:17:04.155Z,2.20
2023-05-02T16:19:38.799Z,2.00
2023-05-02T16:22:11.534Z,3.10
2023-05-02T16:24:41.272Z,1.73
2023-05-02T16:27:10.244Z,1.90
2023-05-02T16:29:42.131Z,1.90
2023-05-02T16:32:12.540Z,2.87
2023-05-02T16:34:43.227Z,2.50
2023-05-02T16:37:11.658Z,3.00
2023-05-02T16:39:41.530Z,2.33
2023-05-02T16:42:15.171Z,2.70
2023-05-02T16:44:43.728Z,1.97
2023-05-02T16:47:14.060Z,1.90
2023-05-02T16:49:46.108Z,2.00
2023-05-02T16:52:18.984Z,2.30
2023-05-02T16:54:48.515Z,2.50
2023-05-02T16:57:20.024Z,2.60
2023-05-02T17:00:00.873Z,2.27
2023-05-02T17:02:30.998Z,2.20
2023-05-02T17:04:58.960Z,1.90
2023-05-02T17:07:28.657Z,2.67
2023-05-02T17:09:58.511Z,2.53
2023-05-02T17:12:34.203Z,3.20
2023-05-02T17:15:04.507Z,2.37
2023-05-02T17:17:36.696Z,2.83
2023-05-02T17:20:07.392Z,3.03
2023-05-02T17:22:35.672Z,2.60
2023-05-02T17:25:06.696Z,2.17
2023-05-02T17:27:34.717Z,2.43
2023-05-02T17:30:03.330Z,2.67
2023-05-02T17:32:34.123Z,2.27
2023-05-02T17:35:03.365Z,2.50
2023-05-02T17:37:34.698Z,2.13
2023-05-02T17:40:06.097Z,2.63
2023-05-02T17:42:34.666Z,2.67
2023-05-02T17:45:06.523Z,2.57
2023-05-02T17:47:36.110Z,3.40
2023-05-02T17:50:05.430Z,3.00
2023-05-02T17:52:35.949Z,2.97
2023-05-02T17:55:07.185Z,2.73
2023-05-02T17:57:35.513Z,3.13
2023-05-02T18:00:05.159Z,4.00
2023-05-02T18:02:35.402Z,3.17
2023-05-02T18:05:04.226Z,3.23
2023-05-02T18:07:32.613Z,3.17
2023-05-02T18:10:10.035Z,4.00
2023-05-02T18:12:39.373Z,3.70
2023-05-02T18:15:09.758Z,3.50
2023-05-02T18:17:40.939Z,4.03
2023-05-02T18:20:12.160Z,3.93
2023-05-02T18:22:44.726Z,2.90
2023-05-02T18:25:12.954Z,3.90
2023-05-02T18:28:00.566Z,4.60
2023-05-02T18:30:29.308Z,3.53
2023-05-02T18:33:00.734Z,3.60
2023-05-02T18:35:29.159Z,3.17
2023-05-02T18:38:00.386Z,3.30
2023-05-02T18:40:28.877Z,3.30
2023-05-02T18:42:59.397Z,3.47
2023-05-02T18:45:30.749Z,3.20
2023-05-02T18:48:04.635Z,4.20
2023-05-02T18:50:33.080Z,3.10
2023-05-02T18:53:02.144Z,3.30
2023-05-02T18:55:44.946Z,3.77
2023-05-02T18:58:22.314Z,3.50
2023-05-02T19:00:50.960Z,3.30
2023-05-02T19:03:25.457Z,3.03
2023-05-02T19:05:53.857Z,3.70
2023-05-02T19:08:23.021Z,2.93
2023-05-02T19:10:53.968Z,3.33
2023-05-02T19:13:30.166Z,3.63
2023-05-02T19:15:58.470Z,3.27
2023-05-02T19:18:26.434Z,3.23
2023-05-02T19:20:57.773Z,2.77
2023-05-02T19:23:26.207Z,3.37
2023-05-02T19:25:57.198Z,2.70
2023-05-02T19:28:28.087Z,3.10
2023-05-02T19:31:00.561Z,3.57
2023-05-02T19:33:31.876Z,2.40
2023-05-02T19:36:04.816Z,3.30
2023-05-02T19:38:37.622Z,3.30
2023-05-02T19:41:12.363Z,3.00
2023-05-02T19:43:42.637Z,3.33
2023-05-02T19:46:13.456Z,3.30
2023-05-02T19:48:42.928Z,3.50
2023-05-02T19:51:11.274Z,3.30
2023-05-02T19:53:42.290Z,3.27
2023-05-02T19:56:12.783Z,2.63
2023-05-02T19:58:43.746Z,3.63
2023-05-02T20:01:15.681Z,3.20
2023-05-02T20:03:43.885Z,3.30
2023-05-02T20:06:13.320Z,3.13
2023-05-02T20:08:45.528Z,3.77
2023-05-02T20:11:13.463Z,5.20
2023-05-02T20:13:43.263Z,4.90
2023-05-02T20:16:14.921Z,4.00
2023-05-02T20:18:43.454Z,5.53
2023-05-02T20:21:11.288Z,4.70
2023-05-02T20:23:40.767Z,3.87
2023-05-02T20:26:08.613Z,3.70
2023-05-02T20:28:38.006Z,3.90
2023-05-02T20:31:10.498Z,4.70
2023-05-02T20:33:45.777Z,4.53
2023-05-02T20:36:18.971Z,4.40
2023-05-02T20:38:54.199Z,3.77
2023-05-02T20:41:27.112Z,3.90
2023-05-02T20:43:57.295Z,4.93
2023-05-02T20:46:26.979Z,3.47
2023-05-02T20:48:55.729Z,4.13
2023-05-02T20:51:26.677Z,5.07
2023-05-02T20:53:54.791Z,4.70
2023-05-02T20:56:23.261Z,4.00
2023-05-02T20:58:51.568Z,4.83
2023-05-02T21:01:25.692Z,6.13
2023-05-02T21:03:57.258Z,4.77
2023-05-02T21:06:27.624Z,4.57
2023-05-02T21:08:56.937Z,5.30
2023-05-02T21:11:27.515Z,4.93
2023-05-02T21:13:55.509Z,4.67
2023-05-02T21:16:26.689Z,4.73
2023-05-02T21:18:57.002Z,4.50
2023-05-02T21:21:25.649Z,5.40
2023-05-02T21:23:53.930Z,4.20
2023-05-02T21:26:21.948Z,5.03
2023-05-02T21:28:49.913Z,5.13
2023-05-02T21:31:18.334Z,5.13
2023-05-02T21:33:46.470Z,4.53
2023-05-02T21:36:16.073Z,4.57
2023-05-02T21:38:45.707Z,5.70
2023-05-02T21:41:19.129Z,5.57
2023-05-02T21:43:49.711Z,5.03
2023-05-02T21:46:17.711Z,4.97
2023-05-02T21:48:48.024Z,5.77
2023-05-02T21:51:17.939Z,4.07
2023-05-02T21:53:55.461Z,5.07
2023-05-02T21:56:24.052Z,4.53
2023-05-02T21:58:52.905Z,4.40
2023-05-02T22:01:23.631Z,4.53
2023-05-02T22:03:56.731Z,4.33
2023-05-02T22:06:26.902Z,4.17
2023-05-02T22:09:11.522Z,4.50
2023-05-02T22:11:42.324Z,4.23
2023-05-02T22:14:13.522Z,4.50
2023-05-02T22:16:44.583Z,5.40
2023-05-02T22:19:14.601Z,4.07
2023-05-02T22:21:46.683Z,4.40
2023-05-02T22:24:15.159Z,5.50
2023-05-02T22:26:43.507Z,4.37
2023-05-02T22:29:14.368Z,4.60
2023-05-02T22:31:45.089Z,4.63
2023-05-02T22:34:18.291Z,5.10
2023-05-02T22:36:48.943Z,5.07
2023-05-02T22:39:20.665Z,4.83
2023-05-02T22:41:48.450Z,5.20
2023-05-02T22:44:16.382Z,4.97
2023-05-02T22:46:44.519Z,4.90
2023-05-02T22:49:12.776Z,4.27
2023-05-02T22:51:42.301Z,4.20
2023-05-02T22:54:29.236Z,5.70
2023-05-02T22:56:58.606Z,3.90
2023-05-02T22:59:32.451Z,4.73
2023-05-02T23:02:01.538Z,5.00
2023-05-02T23:04:35.282Z,4.27
2023-05-02T23:07:05.025Z,5.50
2023-05-02T23:09:36.033Z,4.37
2023-05-02T23:12:04.264Z,4.17
2023-05-02T23:14:34.937Z,4.93
2023-05-02T23:17:03.746Z,4.80
2023-05-02T23:19:32.290Z,5.03
2023-05-02T23:22:00.846Z,4.90
2023-05-02T23:24:29.721Z,4.97
2023-05-02T23:27:01.949Z,4.93
2023-05-02T23:29:30.340Z,4.03
2023-05-02T23:31:58.232Z,5.30
2023-05-02T23:34:26.715Z,4.97
2023-05-02T23:36:54.852Z,5.70
2023-05-02T23:39:23.215Z,4.67
2023-05-02T23:41:53.903Z,5.17
2023-05-02T23:44:23.871Z,4.80
2023-05-02T23:46:52.224Z,4.47
2023-05-02T23:49:24.712Z,5.10
2023-05-02T23:51:52.589Z,4.80
2023-05-02T23:54:32.623Z,4.77
2023-05-02T23:57:04.585Z,4.93
2023-05-02T23:59:35.542Z,5.27
